sensor_id;sensor_type;location;lat;lon;timestamp;P1;durP1;ratioP1;P2;durP2;ratioP2
16407;SDS011;8313;49.894;8.084;2023-05-07T00:01:36;3.97;;;2.50;;
16407;SDS011;8313;49.894;8.084;2023-05-07T00:04:02;5.53;;;3.17;;
16407;SDS011;8313;49.894;8.084;2023-05-07T00:06:28;2.53;;;2.33;;
16407;SDS011;8313;49.894;8.084;2023-05-07T00:08:55;3.10;;;2.90;;
16407;SDS011;8313;49.894;8.084;2023-05-07T00:11:21;3.57;;;2.80;;
16407;SDS011;8313;49.894;8.084;2023-05-07T00:13:47;3.47;;;3.13;;
16407;SDS011;8313;49.894;8.084;2023-05-07T00:16:13;3.57;;;3.27;;
16407;SDS011;8313;49.894;8.084;2023-05-07T00:18:38;3.47;;;3.17;;
16407;SDS011;8313;49.894;8.084;2023-05-07T00:21:04;3.60;;;3.17;;
16407;SDS011;8313;49.894;8.084;2023-05-07T00:23:30;2.70;;;2.40;;
16407;SDS011;8313;49.894;8.084;2023-05-07T00:25:56;4.67;;;2.40;;
16407;SDS011;8313;49.894;8.084;2023-05-07T00:28:21;2.90;;;2.60;;
16407;SDS011;8313;49.894;8.084;2023-05-07T00:30:47;3.10;;;2.70;;
16407;SDS011;8313;49.894;8.084;2023-05-07T00:33:13;3.47;;;2.90;;
16407;SDS011;8313;49.894;8.084;2023-05-07T00:35:38;3.07;;;2.87;;
16407;SDS011;8313;49.894;8.084;2023-05-07T00:38:04;2.63;;;2.43;;
16407;SDS011;8313;49.894;8.084;2023-05-07T00:40:29;3.13;;;2.90;;
16407;SDS011;8313;49.894;8.084;2023-05-07T00:42:55;2.20;;;2.00;;
16407;SDS011;8313;49.894;8.084;2023-05-07T00:45:24;3.10;;;2.57;;
16407;SDS011;8313;49.894;8.084;2023-05-07T00:47:55;2.33;;;2.13;;
16407;SDS011;8313;49.894;8.084;2023-05-07T00:50:24;2.80;;;2.60;;
16407;SDS011;8313;49.894;8.084;2023-05-07T00:52:51;4.50;;;2.80;;
16407;SDS011;8313;49.894;8.084;2023-05-07T00:55:21;2.90;;;2.70;;
16407;SDS011;8313;49.894;8.084;2023-05-07T00:57:47;3.23;;;2.40;;
16407;SDS011;8313;49.894;8.084;2023-05-07T01:00:15;3.43;;;2.70;;
16407;SDS011;8313;49.894;8.084;2023-05-07T01:02:41;3.50;;;2.60;;
16407;SDS011;8313;49.894;8.084;2023-05-07T01:05:08;3.33;;;2.70;;
16407;SDS011;8313;49.894;8.084;2023-05-07T01:07:39;2.47;;;2.30;;
16407;SDS011;8313;49.894;8.084;2023-05-07T01:10:06;2.20;;;2.10;;
16407;SDS011;8313;49.894;8.084;2023-05-07T01:12:34;2.50;;;2.30;;
16407;SDS011;8313;49.894;8.084;2023-05-07T01:15:02;4.00;;;2.70;;
16407;SDS011;8313;49.894;8.084;2023-05-07T01:17:29;2.57;;;2.37;;
16407;SDS011;8313;49.894;8.084;2023-05-07T01:19:59;2.70;;;2.50;;
16407;SDS011;8313;49.894;8.084;2023-05-07T01:22:28;2.83;;;2.63;;
16407;SDS011;8313;49.894;8.084;2023-05-07T01:24:58;2.80;;;2.50;;
16407;SDS011;8313;49.894;8.084;2023-05-07T01:27:27;2.70;;;2.50;;
16407;SDS011;8313;49.894;8.084;2023-05-07T01:29:53;3.57;;;2.83;;
16407;SDS011;8313;49.894;8.084;2023-05-07T01:32:21;2.87;;;2.63;;
16407;SDS011;8313;49.894;8.084;2023-05-07T01:34:52;3.30;;;2.27;;
16407;SDS011;8313;49.894;8.084;2023-05-07T01:37:19;3.03;;;2.20;;
16407;SDS011;8313;49.894;8.084;2023-05-07T01:39:46;3.50;;;2.57;;
16407;SDS011;8313;49.894;8.084;2023-05-07T01:42:12;3.53;;;2.83;;
16407;SDS011;8313;49.894;8.084;2023-05-07T01:44:38;2.50;;;2.40;;
16407;SDS011;8313;49.894;8.084;2023-05-07T01:47:04;2.40;;;2.20;;
16407;SDS011;8313;49.894;8.084;2023-05-07T01:49:31;2.27;;;2.07;;
16407;SDS011;8313;49.894;8.084;2023-05-07T01:51:57;4.33;;;2.47;;
16407;SDS011;8313;49.894;8.084;2023-05-07T01:54:26;2.40;;;2.20;;
16407;SDS011;8313;49.894;8.084;2023-05-07T01:56:53;2.97;;;2.27;;
16407;SDS011;8313;49.894;8.084;2023-05-07T01:59:21;2.30;;;2.03;;
16407;SDS011;8313;49.894;8.084;2023-05-07T02:01:46;2.20;;;2.00;;
16407;SDS011;8313;49.894;8.084;2023-05-07T02:04:12;2.17;;;2.00;;
16407;SDS011;8313;49.894;8.084;2023-05-07T02:06:38;2.27;;;2.07;;
16407;SDS011;8313;49.894;8.084;2023-05-07T02:09:05;2.33;;;2.13;;
16407;SDS011;8313;49.894;8.084;2023-05-07T02:11:31;2.40;;;2.20;;
16407;SDS011;8313;49.894;8.084;2023-05-07T02:13:57;2.57;;;2.37;;
16407;SDS011;8313;49.894;8.084;2023-05-07T02:16:23;2.47;;;2.23;;
16407;SDS011;8313;49.894;8.084;2023-05-07T02:18:50;2.60;;;2.40;;
16407;SDS011;8313;49.894;8.084;2023-05-07T02:21:15;3.00;;;2.77;;
16407;SDS011;8313;49.894;8.084;2023-05-07T02:23:41;3.50;;;2.40;;
16407;SDS011;8313;49.894;8.084;2023-05-07T02:26:07;3.40;;;2.73;;
16407;SDS011;8313;49.894;8.084;2023-05-07T02:28:33;2.30;;;2.10;;
16407;SDS011;8313;49.894;8.084;2023-05-07T02:31:03;2.40;;;2.20;;
16407;SDS011;8313;49.894;8.084;2023-05-07T02:33:30;2.83;;;2.63;;
16407;SDS011;8313;49.894;8.084;2023-05-07T02:35:56;2.87;;;2.40;;
16407;SDS011;8313;49.894;8.084;2023-05-07T02:38:22;3.70;;;2.20;;
16407;SDS011;8313;49.894;8.084;2023-05-07T02:40:48;2.70;;;2.47;;
16407;SDS011;8313;49.894;8.084;2023-05-07T02:43:14;3.80;;;2.70;;
16407;SDS011;8313;49.894;8.084;2023-05-07T02:45:43;2.27;;;2.07;;
16407;SDS011;8313;49.894;8.084;2023-05-07T02:48:10;2.57;;;2.37;;
16407;SDS011;8313;49.894;8.084;2023-05-07T02:50:35;3.60;;;2.53;;
16407;SDS011;8313;49.894;8.084;2023-05-07T02:53:01;2.13;;;2.00;;
16407;SDS011;8313;49.894;8.084;2023-05-07T02:55:27;3.17;;;2.60;;
16407;SDS011;8313;49.894;8.084;2023-05-07T02:57:53;2.53;;;2.33;;
16407;SDS011;8313;49.894;8.084;2023-05-07T03:00:19;3.00;;;2.80;;
16407;SDS011;8313;49.894;8.084;2023-05-07T03:02:56;2.10;;;1.93;;
16407;SDS011;8313;49.894;8.084;2023-05-07T03:05:21;2.27;;;2.10;;
16407;SDS011;8313;49.894;8.084;2023-05-07T03:07:47;2.30;;;2.10;;
16407;SDS011;8313;49.894;8.084;2023-05-07T03:10:13;2.40;;;2.20;;
16407;SDS011;8313;49.894;8.084;2023-05-07T03:12:40;3.30;;;2.40;;
16407;SDS011;8313;49.894;8.084;2023-05-07T03:15:06;3.17;;;2.43;;
16407;SDS011;8313;49.894;8.084;2023-05-07T03:17:33;5.87;;;2.53;;
16407;SDS011;8313;49.894;8.084;2023-05-07T03:19:58;5.03;;;2.20;;
16407;SDS011;8313;49.894;8.084;2023-05-07T03:22:24;2.70;;;2.50;;
16407;SDS011;8313;49.894;8.084;2023-05-07T03:24:50;2.67;;;2.43;;
16407;SDS011;8313;49.894;8.084;2023-05-07T03:27:16;2.80;;;2.47;;
16407;SDS011;8313;49.894;8.084;2023-05-07T03:29:42;2.90;;;2.60;;
16407;SDS011;8313;49.894;8.084;2023-05-07T03:32:07;2.10;;;1.90;;
16407;SDS011;8313;49.894;8.084;2023-05-07T03:34:34;3.70;;;2.23;;
16407;SDS011;8313;49.894;8.084;2023-05-07T03:37:00;2.23;;;2.03;;
16407;SDS011;8313;49.894;8.084;2023-05-07T03:39:25;1.90;;;1.80;;
16407;SDS011;8313;49.894;8.084;2023-05-07T03:41:51;2.67;;;2.47;;
16407;SDS011;8313;49.894;8.084;2023-05-07T03:44:17;3.00;;;2.70;;
16407;SDS011;8313;49.894;8.084;2023-05-07T03:46:43;2.37;;;2.17;;
16407;SDS011;8313;49.894;8.084;2023-05-07T03:49:10;2.40;;;2.20;;
16407;SDS011;8313;49.894;8.084;2023-05-07T03:51:36;2.40;;;2.20;;
16407;SDS011;8313;49.894;8.084;2023-05-07T03:54:03;3.70;;;2.30;;
16407;SDS011;8313;49.894;8.084;2023-05-07T03:56:31;2.20;;;2.00;;
16407;SDS011;8313;49.894;8.084;2023-05-07T03:58:59;2.30;;;2.20;;
16407;SDS011;8313;49.894;8.084;2023-05-07T04:01:25;3.00;;;2.70;;
16407;SDS011;8313;49.894;8.084;2023-05-07T04:03:51;3.07;;;2.40;;
16407;SDS011;8313;49.894;8.084;2023-05-07T04:06:17;2.97;;;2.73;;
16407;SDS011;8313;49.894;8.084;2023-05-07T04:08:44;2.27;;;2.07;;
16407;SDS011;8313;49.894;8.084;2023-05-07T04:11:11;2.80;;;2.60;;
16407;SDS011;8313;49.894;8.084;2023-05-07T04:13:36;3.00;;;2.70;;
16407;SDS011;8313;49.894;8.084;2023-05-07T04:16:04;3.00;;;2.80;;
16407;SDS011;8313;49.894;8.084;2023-05-07T04:18:33;2.60;;;2.30;;
16407;SDS011;8313;49.894;8.084;2023-05-07T04:20:59;3.40;;;2.60;;
16407;SDS011;8313;49.894;8.084;2023-05-07T04:23:25;2.30;;;2.07;;
16407;SDS011;8313;49.894;8.084;2023-05-07T04:25:51;2.70;;;2.50;;
16407;SDS011;8313;49.894;8.084;2023-05-07T04:28:22;3.57;;;2.30;;
16407;SDS011;8313;49.894;8.084;2023-05-07T04:30:49;2.50;;;2.30;;
16407;SDS011;8313;49.894;8.084;2023-05-07T04:33:15;2.50;;;2.30;;
16407;SDS011;8313;49.894;8.084;2023-05-07T04:35:43;2.67;;;2.43;;
16407;SDS011;8313;49.894;8.084;2023-05-07T04:38:08;2.30;;;2.13;;
16407;SDS011;8313;49.894;8.084;2023-05-07T04:40:35;2.67;;;2.43;;
16407;SDS011;8313;49.894;8.084;2023-05-07T04:43:01;2.50;;;1.90;;
16407;SDS011;8313;49.894;8.084;2023-05-07T04:45:30;2.67;;;2.47;;
16407;SDS011;8313;49.894;8.084;2023-05-07T04:47:57;2.90;;;2.60;;
16407;SDS011;8313;49.894;8.084;2023-05-07T04:50:22;3.00;;;2.70;;
16407;SDS011;8313;49.894;8.084;2023-05-07T04:52:51;2.37;;;2.27;;
16407;SDS011;8313;49.894;8.084;2023-05-07T04:55:18;2.50;;;2.30;;
16407;SDS011;8313;49.894;8.084;2023-05-07T04:57:43;3.13;;;2.47;;
16407;SDS011;8313;49.894;8.084;2023-05-07T05:00:12;2.33;;;2.23;;
16407;SDS011;8313;49.894;8.084;2023-05-07T05:02:43;2.90;;;2.70;;
16407;SDS011;8313;49.894;8.084;2023-05-07T05:05:12;3.33;;;2.67;;
16407;SDS011;8313;49.894;8.084;2023-05-07T05:07:38;4.70;;;2.60;;
16407;SDS011;8313;49.894;8.084;2023-05-07T05:10:04;5.53;;;2.77;;
16407;SDS011;8313;49.894;8.084;2023-05-07T05:12:33;3.00;;;2.70;;
16407;SDS011;8313;49.894;8.084;2023-05-07T05:15:00;5.33;;;2.60;;
16407;SDS011;8313;49.894;8.084;2023-05-07T05:17:27;2.63;;;2.43;;
16407;SDS011;8313;49.894;8.084;2023-05-07T05:19:52;2.30;;;2.20;;
16407;SDS011;8313;49.894;8.084;2023-05-07T05:22:18;2.53;;;2.33;;
16407;SDS011;8313;49.894;8.084;2023-05-07T05:24:44;3.00;;;2.80;;
16407;SDS011;8313;49.894;8.084;2023-05-07T05:27:10;3.10;;;2.80;;
16407;SDS011;8313;49.894;8.084;2023-05-07T05:29:35;2.47;;;2.17;;
16407;SDS011;8313;49.894;8.084;2023-05-07T05:32:01;3.47;;;2.60;;
16407;SDS011;8313;49.894;8.084;2023-05-07T05:34:29;2.70;;;2.50;;
16407;SDS011;8313;49.894;8.084;2023-05-07T05:36:55;4.07;;;3.23;;
16407;SDS011;8313;49.894;8.084;2023-05-07T05:39:21;2.90;;;2.20;;
16407;SDS011;8313;49.894;8.084;2023-05-07T05:41:48;2.97;;;2.67;;
16407;SDS011;8313;49.894;8.084;2023-05-07T05:44:14;2.37;;;2.17;;
16407;SDS011;8313;49.894;8.084;2023-05-07T05:46:41;2.57;;;2.37;;
16407;SDS011;8313;49.894;8.084;2023-05-07T05:49:07;2.83;;;2.47;;
16407;SDS011;8313;49.894;8.084;2023-05-07T05:51:33;2.40;;;2.07;;
16407;SDS011;8313;49.894;8.084;2023-05-07T05:53:59;3.37;;;2.40;;
16407;SDS011;8313;49.894;8.084;2023-05-07T05:56:25;2.60;;;2.40;;
16407;SDS011;8313;49.894;8.084;2023-05-07T05:58:51;2.80;;;2.60;;
16407;SDS011;8313;49.894;8.084;2023-05-07T06:01:17;2.57;;;2.37;;
16407;SDS011;8313;49.894;8.084;2023-05-07T06:03:44;2.63;;;2.43;;
16407;SDS011;8313;49.894;8.084;2023-05-07T06:06:13;2.27;;;2.07;;
16407;SDS011;8313;49.894;8.084;2023-05-07T06:08:41;2.37;;;2.10;;
16407;SDS011;8313;49.894;8.084;2023-05-07T06:11:09;4.03;;;2.20;;
16407;SDS011;8313;49.894;8.084;2023-05-07T06:13:37;2.47;;;2.27;;
16407;SDS011;8313;49.894;8.084;2023-05-07T06:16:03;2.80;;;2.40;;
16407;SDS011;8313;49.894;8.084;2023-05-07T06:18:28;2.70;;;2.50;;
16407;SDS011;8313;49.894;8.084;2023-05-07T06:20:54;2.97;;;2.43;;
16407;SDS011;8313;49.894;8.084;2023-05-07T06:23:24;3.67;;;2.63;;
16407;SDS011;8313;49.894;8.084;2023-05-07T06:25:51;6.87;;;3.00;;
16407;SDS011;8313;49.894;8.084;2023-05-07T06:28:19;3.03;;;2.20;;
16407;SDS011;8313;49.894;8.084;2023-05-07T06:30:45;2.47;;;2.27;;
16407;SDS011;8313;49.894;8.084;2023-05-07T06:33:11;5.30;;;2.70;;
16407;SDS011;8313;49.894;8.084;2023-05-07T06:35:37;3.20;;;2.87;;
16407;SDS011;8313;49.894;8.084;2023-05-07T06:38:02;4.13;;;3.27;;
16407;SDS011;8313;49.894;8.084;2023-05-07T06:40:29;3.23;;;2.80;;
16407;SDS011;8313;49.894;8.084;2023-05-07T06:42:57;3.20;;;2.47;;
16407;SDS011;8313;49.894;8.084;2023-05-07T06:45:47;3.00;;;2.63;;
16407;SDS011;8313;49.894;8.084;2023-05-07T06:48:13;2.63;;;2.20;;
16407;SDS011;8313;49.894;8.084;2023-05-07T06:50:52;2.50;;;2.30;;
16407;SDS011;8313;49.894;8.084;2023-05-07T06:53:18;2.60;;;2.40;;
16407;SDS011;8313;49.894;8.084;2023-05-07T06:55:43;6.13;;;2.80;;
16407;SDS011;8313;49.894;8.084;2023-05-07T06:58:10;3.07;;;2.47;;
16407;SDS011;8313;49.894;8.084;2023-05-07T07:00:37;2.50;;;2.30;;
16407;SDS011;8313;49.894;8.084;2023-05-07T07:03:02;5.87;;;2.50;;
16407;SDS011;8313;49.894;8.084;2023-05-07T07:05:29;3.57;;;2.57;;
16407;SDS011;8313;49.894;8.084;2023-05-07T07:07:55;4.17;;;2.93;;
16407;SDS011;8313;49.894;8.084;2023-05-07T07:10:21;6.43;;;2.60;;
16407;SDS011;8313;49.894;8.084;2023-05-07T07:12:49;2.57;;;2.27;;
16407;SDS011;8313;49.894;8.084;2023-05-07T07:15:15;3.73;;;2.43;;
16407;SDS011;8313;49.894;8.084;2023-05-07T07:17:41;3.00;;;2.70;;
16407;SDS011;8313;49.894;8.084;2023-05-07T07:20:07;2.93;;;2.73;;
16407;SDS011;8313;49.894;8.084;2023-05-07T07:22:33;3.00;;;2.70;;
16407;SDS011;8313;49.894;8.084;2023-05-07T07:24:59;2.80;;;2.60;;
16407;SDS011;8313;49.894;8.084;2023-05-07T07:27:25;3.23;;;2.80;;
16407;SDS011;8313;49.894;8.084;2023-05-07T07:29:51;3.33;;;3.03;;
16407;SDS011;8313;49.894;8.084;2023-05-07T07:32:17;4.03;;;2.83;;
16407;SDS011;8313;49.894;8.084;2023-05-07T07:34:43;2.80;;;2.50;;
16407;SDS011;8313;49.894;8.084;2023-05-07T07:37:09;3.20;;;2.80;;
16407;SDS011;8313;49.894;8.084;2023-05-07T07:39:36;3.27;;;3.00;;
16407;SDS011;8313;49.894;8.084;2023-05-07T07:42:03;4.20;;;2.93;;
16407;SDS011;8313;49.894;8.084;2023-05-07T07:44:29;3.00;;;2.70;;
16407;SDS011;8313;49.894;8.084;2023-05-07T07:46:59;3.47;;;2.87;;
16407;SDS011;8313;49.894;8.084;2023-05-07T07:49:26;3.17;;;2.60;;
16407;SDS011;8313;49.894;8.084;2023-05-07T07:51:52;3.80;;;3.03;;
16407;SDS011;8313;49.894;8.084;2023-05-07T07:54:18;3.03;;;2.73;;
16407;SDS011;8313;49.894;8.084;2023-05-07T07:56:44;3.00;;;2.70;;
16407;SDS011;8313;49.894;8.084;2023-05-07T07:59:11;3.33;;;3.03;;
16407;SDS011;8313;49.894;8.084;2023-05-07T08:01:39;2.80;;;2.60;;
16407;SDS011;8313;49.894;8.084;2023-05-07T08:04:06;3.13;;;2.77;;
16407;SDS011;8313;49.894;8.084;2023-05-07T08:06:35;2.60;;;2.40;;
16407;SDS011;8313;49.894;8.084;2023-05-07T08:09:02;3.40;;;3.20;;
16407;SDS011;8313;49.894;8.084;2023-05-07T08:11:28;3.07;;;2.80;;
16407;SDS011;8313;49.894;8.084;2023-05-07T08:13:54;3.77;;;2.83;;
16407;SDS011;8313;49.894;8.084;2023-05-07T08:16:21;3.40;;;3.20;;
16407;SDS011;8313;49.894;8.084;2023-05-07T08:18:47;2.90;;;2.70;;
16407;SDS011;8313;49.894;8.084;2023-05-07T08:21:13;3.63;;;2.97;;
16407;SDS011;8313;49.894;8.084;2023-05-07T08:23:39;3.40;;;3.10;;
16407;SDS011;8313;49.894;8.084;2023-05-07T08:26:07;3.37;;;3.07;;
16407;SDS011;8313;49.894;8.084;2023-05-07T08:28:34;2.80;;;2.60;;
16407;SDS011;8313;49.894;8.084;2023-05-07T08:31:00;3.43;;;3.13;;
16407;SDS011;8313;49.894;8.084;2023-05-07T08:33:29;3.00;;;2.80;;
16407;SDS011;8313;49.894;8.084;2023-05-07T08:35:56;3.03;;;2.80;;
16407;SDS011;8313;49.894;8.084;2023-05-07T08:38:22;3.67;;;3.37;;
16407;SDS011;8313;49.894;8.084;2023-05-07T08:40:48;3.17;;;2.97;;
16407;SDS011;8313;49.894;8.084;2023-05-07T08:43:17;3.60;;;3.20;;
16407;SDS011;8313;49.894;8.084;2023-05-07T08:45:45;3.30;;;3.03;;
16407;SDS011;8313;49.894;8.084;2023-05-07T08:48:15;3.13;;;2.83;;
16407;SDS011;8313;49.894;8.084;2023-05-07T08:50:45;6.73;;;3.80;;
16407;SDS011;8313;49.894;8.084;2023-05-07T08:53:11;3.37;;;3.07;;
16407;SDS011;8313;49.894;8.084;2023-05-07T08:55:38;3.80;;;3.50;;
16407;SDS011;8313;49.894;8.084;2023-05-07T08:58:03;4.83;;;3.67;;
16407;SDS011;8313;49.894;8.084;2023-05-07T09:00:30;5.50;;;3.43;;
16407;SDS011;8313;49.894;8.084;2023-05-07T09:02:59;5.20;;;3.77;;
16407;SDS011;8313;49.894;8.084;2023-05-07T09:05:26;3.70;;;3.40;;
16407;SDS011;8313;49.894;8.084;2023-05-07T09:07:52;4.90;;;3.60;;
16407;SDS011;8313;49.894;8.084;2023-05-07T09:10:19;3.70;;;3.40;;
16407;SDS011;8313;49.894;8.084;2023-05-07T09:12:46;5.87;;;3.40;;
16407;SDS011;8313;49.894;8.084;2023-05-07T09:15:13;4.03;;;3.63;;
16407;SDS011;8313;49.894;8.084;2023-05-07T09:17:40;3.70;;;3.40;;
16407;SDS011;8313;49.894;8.084;2023-05-07T09:20:07;4.20;;;3.87;;
16407;SDS011;8313;49.894;8.084;2023-05-07T09:22:33;4.77;;;3.40;;
16407;SDS011;8313;49.894;8.084;2023-05-07T09:25:08;4.03;;;3.63;;
16407;SDS011;8313;49.894;8.084;2023-05-07T09:27:35;4.60;;;4.20;;
16407;SDS011;8313;49.894;8.084;2023-05-07T09:30:08;4.00;;;3.60;;
16407;SDS011;8313;49.894;8.084;2023-05-07T09:32:36;3.93;;;3.53;;
16407;SDS011;8313;49.894;8.084;2023-05-07T09:35:18;3.60;;;3.30;;
16407;SDS011;8313;49.894;8.084;2023-05-07T09:37:51;7.40;;;3.87;;
16407;SDS011;8313;49.894;8.084;2023-05-07T09:42:50;4.10;;;3.80;;
16407;SDS011;8313;49.894;8.084;2023-05-07T09:45:21;4.60;;;3.80;;
16407;SDS011;8313;49.894;8.084;2023-05-07T09:47:58;7.57;;;4.10;;
16407;SDS011;8313;49.894;8.084;2023-05-07T09:50:29;3.80;;;3.50;;
16407;SDS011;8313;49.894;8.084;2023-05-07T09:53:01;4.27;;;3.80;;
16407;SDS011;8313;49.894;8.084;2023-05-07T09:55:29;4.57;;;4.07;;
16407;SDS011;8313;49.894;8.084;2023-05-07T09:57:56;3.97;;;3.60;;
16407;SDS011;8313;49.894;8.084;2023-05-07T10:00:25;6.60;;;4.10;;
16407;SDS011;8313;49.894;8.084;2023-05-07T10:03:00;4.43;;;4.03;;
16407;SDS011;8313;49.894;8.084;2023-05-07T10:05:36;3.73;;;3.47;;
16407;SDS011;8313;49.894;8.084;2023-05-07T10:08:03;4.13;;;3.83;;
16407;SDS011;8313;49.894;8.084;2023-05-07T10:10:29;5.40;;;4.17;;
16407;SDS011;8313;49.894;8.084;2023-05-07T10:12:56;3.70;;;3.40;;
16407;SDS011;8313;49.894;8.084;2023-05-07T10:15:29;4.30;;;3.90;;
16407;SDS011;8313;49.894;8.084;2023-05-07T10:17:56;3.90;;;3.53;;
16407;SDS011;8313;49.894;8.084;2023-05-07T10:20:23;4.37;;;4.07;;
16407;SDS011;8313;49.894;8.084;2023-05-07T10:22:52;4.47;;;4.07;;
16407;SDS011;8313;49.894;8.084;2023-05-07T10:25:28;3.30;;;3.10;;
16407;SDS011;8313;49.894;8.084;2023-05-07T10:27:59;3.27;;;3.07;;
16407;SDS011;8313;49.894;8.084;2023-05-07T10:33:16;4.00;;;3.60;;
16407;SDS011;8313;49.894;8.084;2023-05-07T10:35:46;3.77;;;3.50;;
16407;SDS011;8313;49.894;8.084;2023-05-07T10:38:14;6.40;;;3.77;;
16407;SDS011;8313;49.894;8.084;2023-05-07T10:40:43;4.07;;;3.77;;
16407;SDS011;8313;49.894;8.084;2023-05-07T10:43:09;3.40;;;3.10;;
16407;SDS011;8313;49.894;8.084;2023-05-07T10:51:27;4.80;;;4.30;;
16407;SDS011;8313;49.894;8.084;2023-05-07T10:56:46;4.00;;;3.10;;
16407;SDS011;8313;49.894;8.084;2023-05-07T11:01:54;3.47;;;3.27;;
16407;SDS011;8313;49.894;8.084;2023-05-07T11:04:37;4.03;;;3.70;;
16407;SDS011;8313;49.894;8.084;2023-05-07T11:07:28;4.27;;;3.97;;
16407;SDS011;8313;49.894;8.084;2023-05-07T11:10:00;5.00;;;3.50;;
16407;SDS011;8313;49.894;8.084;2023-05-07T11:15:15;3.60;;;3.40;;
16407;SDS011;8313;49.894;8.084;2023-05-07T11:17:59;9.10;;;3.80;;
16407;SDS011;8313;49.894;8.084;2023-05-07T11:20:47;4.03;;;3.70;;
16407;SDS011;8313;49.894;8.084;2023-05-07T11:23:54;3.53;;;3.23;;
16407;SDS011;8313;49.894;8.084;2023-05-07T11:26:28;4.63;;;4.30;;
16407;SDS011;8313;49.894;8.084;2023-05-07T11:29:14;3.97;;;3.57;;
16407;SDS011;8313;49.894;8.084;2023-05-07T11:31:48;3.70;;;3.40;;
16407;SDS011;8313;49.894;8.084;2023-05-07T11:34:25;5.73;;;3.80;;
16407;SDS011;8313;49.894;8.084;2023-05-07T11:36:53;3.57;;;3.27;;
16407;SDS011;8313;49.894;8.084;2023-05-07T11:41:57;4.63;;;3.73;;
16407;SDS011;8313;49.894;8.084;2023-05-07T11:44:42;4.10;;;3.80;;
16407;SDS011;8313;49.894;8.084;2023-05-07T11:47:11;3.80;;;3.50;;
16407;SDS011;8313;49.894;8.084;2023-05-07T11:49:41;4.00;;;3.10;;
16407;SDS011;8313;49.894;8.084;2023-05-07T11:52:07;4.23;;;3.83;;
16407;SDS011;8313;49.894;8.084;2023-05-07T11:54:39;3.90;;;3.60;;
16407;SDS011;8313;49.894;8.084;2023-05-07T11:57:05;5.50;;;3.83;;
16407;SDS011;8313;49.894;8.084;2023-05-07T11:59:41;4.27;;;3.57;;
16407;SDS011;8313;49.894;8.084;2023-05-07T12:02:09;4.40;;;4.00;;
16407;SDS011;8313;49.894;8.084;2023-05-07T12:04:35;4.47;;;4.17;;
16407;SDS011;8313;49.894;8.084;2023-05-07T12:07:02;4.53;;;4.23;;
16407;SDS011;8313;49.894;8.084;2023-05-07T12:09:28;3.80;;;3.50;;
16407;SDS011;8313;49.894;8.084;2023-05-07T12:11:54;4.20;;;3.80;;
16407;SDS011;8313;49.894;8.084;2023-05-07T12:14:21;4.60;;;4.30;;
16407;SDS011;8313;49.894;8.084;2023-05-07T12:16:46;4.33;;;4.03;;
16407;SDS011;8313;49.894;8.084;2023-05-07T12:19:13;4.10;;;3.70;;
16407;SDS011;8313;49.894;8.084;2023-05-07T12:21:39;5.93;;;4.07;;
16407;SDS011;8313;49.894;8.084;2023-05-07T12:24:05;3.80;;;3.50;;
16407;SDS011;8313;49.894;8.084;2023-05-07T12:26:31;4.60;;;4.17;;
16407;SDS011;8313;49.894;8.084;2023-05-07T12:28:57;4.90;;;4.43;;
16407;SDS011;8313;49.894;8.084;2023-05-07T12:31:25;4.10;;;3.80;;
16407;SDS011;8313;49.894;8.084;2023-05-07T12:33:51;5.33;;;3.53;;
16407;SDS011;8313;49.894;8.084;2023-05-07T12:36:17;4.57;;;4.10;;
16407;SDS011;8313;49.894;8.084;2023-05-07T12:38:43;3.53;;;3.27;;
16407;SDS011;8313;49.894;8.084;2023-05-07T12:41:09;4.60;;;4.20;;
16407;SDS011;8313;49.894;8.084;2023-05-07T12:43:37;6.10;;;3.83;;
16407;SDS011;8313;49.894;8.084;2023-05-07T12:46:04;3.70;;;3.40;;
16407;SDS011;8313;49.894;8.084;2023-05-07T12:48:31;3.47;;;3.27;;
16407;SDS011;8313;49.894;8.084;2023-05-07T12:50:58;3.70;;;3.40;;
16407;SDS011;8313;49.894;8.084;2023-05-07T12:53:26;4.13;;;3.80;;
16407;SDS011;8313;49.894;8.084;2023-05-07T12:55:52;6.83;;;3.43;;
16407;SDS011;8313;49.894;8.084;2023-05-07T12:58:20;3.27;;;3.07;;
16407;SDS011;8313;49.894;8.084;2023-05-07T13:00:52;3.10;;;2.90;;
16407;SDS011;8313;49.894;8.084;2023-05-07T13:03:22;3.40;;;3.20;;
16407;SDS011;8313;49.894;8.084;2023-05-07T13:05:49;3.60;;;3.30;;
16407;SDS011;8313;49.894;8.084;2023-05-07T13:10:57;5.03;;;3.13;;
16407;SDS011;8313;49.894;8.084;2023-05-07T13:13:26;3.27;;;3.00;;
16407;SDS011;8313;49.894;8.084;2023-05-07T13:15:51;3.90;;;2.90;;
16407;SDS011;8313;49.894;8.084;2023-05-07T13:18:17;2.97;;;2.77;;
16407;SDS011;8313;49.894;8.084;2023-05-07T13:20:43;3.00;;;2.80;;
16407;SDS011;8313;49.894;8.084;2023-05-07T13:23:08;2.83;;;2.50;;
16407;SDS011;8313;49.894;8.084;2023-05-07T13:25:34;3.13;;;2.67;;
16407;SDS011;8313;49.894;8.084;2023-05-07T13:28:00;2.90;;;2.70;;
16407;SDS011;8313;49.894;8.084;2023-05-07T13:30:25;2.60;;;2.47;;
16407;SDS011;8313;49.894;8.084;2023-05-07T13:32:53;2.50;;;2.30;;
16407;SDS011;8313;49.894;8.084;2023-05-07T13:35:21;2.90;;;2.70;;
16407;SDS011;8313;49.894;8.084;2023-05-07T13:37:46;2.70;;;2.50;;
16407;SDS011;8313;49.894;8.084;2023-05-07T13:40:14;3.40;;;3.10;;
16407;SDS011;8313;49.894;8.084;2023-05-07T13:42:40;3.17;;;2.87;;
16407;SDS011;8313;49.894;8.084;2023-05-07T13:45:06;2.70;;;2.50;;
16407;SDS011;8313;49.894;8.084;2023-05-07T13:47:33;3.50;;;2.87;;
16407;SDS011;8313;49.894;8.084;2023-05-07T13:49:59;2.60;;;2.40;;
16407;SDS011;8313;49.894;8.084;2023-05-07T13:52:24;3.00;;;2.80;;
16407;SDS011;8313;49.894;8.084;2023-05-07T13:54:50;2.10;;;2.00;;
16407;SDS011;8313;49.894;8.084;2023-05-07T13:57:17;2.70;;;2.50;;
16407;SDS011;8313;49.894;8.084;2023-05-07T13:59:43;2.57;;;2.37;;
16407;SDS011;8313;49.894;8.084;2023-05-07T14:02:15;2.50;;;2.30;;
16407;SDS011;8313;49.894;8.084;2023-05-07T14:04:42;2.93;;;2.67;;
16407;SDS011;8313;49.894;8.084;2023-05-07T14:07:08;3.17;;;2.20;;
16407;SDS011;8313;49.894;8.084;2023-05-07T14:09:34;2.30;;;2.20;;
16407;SDS011;8313;49.894;8.084;2023-05-07T14:11:59;2.47;;;2.27;;
16407;SDS011;8313;49.894;8.084;2023-05-07T14:14:26;2.60;;;2.40;;
16407;SDS011;8313;49.894;8.084;2023-05-07T14:16:52;2.83;;;2.47;;
16407;SDS011;8313;49.894;8.084;2023-05-07T14:19:18;2.63;;;2.43;;
16407;SDS011;8313;49.894;8.084;2023-05-07T14:21:44;2.70;;;2.50;;
16407;SDS011;8313;49.894;8.084;2023-05-07T14:24:10;2.73;;;2.53;;
16407;SDS011;8313;49.894;8.084;2023-05-07T14:26:36;2.30;;;2.20;;
16407;SDS011;8313;49.894;8.084;2023-05-07T14:29:02;2.30;;;2.20;;
16407;SDS011;8313;49.894;8.084;2023-05-07T14:31:28;2.40;;;2.23;;
16407;SDS011;8313;49.894;8.084;2023-05-07T14:33:54;2.83;;;2.60;;
16407;SDS011;8313;49.894;8.084;2023-05-07T14:36:19;2.40;;;2.20;;
16407;SDS011;8313;49.894;8.084;2023-05-07T14:38:46;5.70;;;3.07;;
16407;SDS011;8313;49.894;8.084;2023-05-07T14:41:12;2.97;;;2.70;;
16407;SDS011;8313;49.894;8.084;2023-05-07T14:43:38;2.37;;;2.27;;
16407;SDS011;8313;49.894;8.084;2023-05-07T14:46:04;3.10;;;2.80;;
16407;SDS011;8313;49.894;8.084;2023-05-07T14:48:29;2.73;;;2.53;;
16407;SDS011;8313;49.894;8.084;2023-05-07T14:50:55;3.17;;;2.97;;
16407;SDS011;8313;49.894;8.084;2023-05-07T14:53:21;4.47;;;2.47;;
16407;SDS011;8313;49.894;8.084;2023-05-07T14:55:47;3.27;;;2.97;;
16407;SDS011;8313;49.894;8.084;2023-05-07T14:58:13;3.60;;;3.30;;
16407;SDS011;8313;49.894;8.084;2023-05-07T15:00:39;3.23;;;3.03;;
16407;SDS011;8313;49.894;8.084;2023-05-07T15:03:09;2.77;;;2.63;;
16407;SDS011;8313;49.894;8.084;2023-05-07T15:05:35;3.30;;;3.00;;
16407;SDS011;8313;49.894;8.084;2023-05-07T15:08:02;3.40;;;3.10;;
16407;SDS011;8313;49.894;8.084;2023-05-07T15:10:27;3.03;;;2.83;;
16407;SDS011;8313;49.894;8.084;2023-05-07T15:12:53;2.57;;;2.47;;
16407;SDS011;8313;49.894;8.084;2023-05-07T15:15:19;3.20;;;3.00;;
16407;SDS011;8313;49.894;8.084;2023-05-07T15:17:45;3.10;;;2.80;;
16407;SDS011;8313;49.894;8.084;2023-05-07T15:20:10;3.10;;;2.70;;
16407;SDS011;8313;49.894;8.084;2023-05-07T15:22:36;3.20;;;2.40;;
16407;SDS011;8313;49.894;8.084;2023-05-07T15:25:02;3.43;;;3.13;;
16407;SDS011;8313;49.894;8.084;2023-05-07T15:27:29;2.90;;;2.70;;